Time;durP1;ratioP1;P1;durP2;ratioP2;P2;SDS_P1;SDS_P2;PMS_P1;PMS_P2;Temp;Humidity;BMP_temperature;BMP_pressure;BME280_temperature;BME280_humidity;BME280_pressure;Samples;Min_cycle;Max_cycle;Signal;HPM_P1;HPM_P2
2022/03/17 00:01:14;;;;;;;30.42;16.30;;;9.40;99.90;;;;;;4918765;29;20080;-87
2022/03/17 00:03:40;;;;;;;27.50;15.65;;;9.50;99.90;;;;;;4918676;29;20055;-87
2022/03/17 00:06:05;;;;;;;28.67;16.58;;;9.50;99.90;;;;;;4916124;29;20040;-87
2022/03/17 00:08:31;;;;;;;29.50;15.85;;;9.50;99.90;;;;;;4917633;29;20075;-87
2022/03/17 00:10:57;;;;;;;31.23;16.55;;;9.50;99.90;;;;;;4918687;29;20131;-87
2022/03/17 00:13:23;;;;;;;27.75;15.85;;;9.50;99.90;;;;;;4900705;29;20152;-87
2022/03/17 00:15:49;;;;;;;27.75;15.18;;;9.40;99.90;;;;;;4918232;29;20047;-87
2022/03/17 00:18:14;;;;;;;27.77;17.13;;;9.40;99.90;;;;;;4917030;29;20047;-86
2022/03/17 00:20:40;;;;;;;26.70;14.95;;;9.40;99.90;;;;;;4916332;29;20055;-88
2022/03/17 00:23:06;;;;;;;27.97;15.43;;;9.40;99.90;;;;;;4917890;29;20048;-87
2022/03/17 00:25:32;;;;;;;29.25;15.98;;;9.40;99.90;;;;;;4917096;29;20099;-87
2022/03/17 00:27:58;;;;;;;28.48;16.25;;;9.40;99.90;;;;;;4916581;29;20096;-87
2022/03/17 00:30:25;;;;;;;25.97;15.30;;;9.40;99.90;;;;;;4917604;29;20496;-87
2022/03/17 00:32:50;;;;;;;28.00;15.38;;;9.40;99.90;;;;;;4916715;29;20374;-87
2022/03/17 00:38:01;;;;;;;;;;;9.40;99.90;;;;;;4897984;29;20048;-87
2022/03/17 00:40:26;;;;;;;27.77;15.40;;;9.30;99.90;;;;;;4897864;29;19927;-87
2022/03/17 00:42:53;;;;;;;26.77;15.53;;;9.30;99.90;;;;;;4898704;29;20112;-87
2022/03/17 00:45:19;;;;;;;27.63;16.17;;;9.30;99.90;;;;;;4898655;29;20056;-87
2022/03/17 00:47:44;;;;;;;29.60;15.98;;;9.30;99.90;;;;;;4881647;29;20405;-86
2022/03/17 00:50:11;;;;;;;27.98;15.90;;;9.30;99.90;;;;;;4881502;29;20553;-86
2022/03/17 00:52:37;;;;;;;27.85;16.02;;;9.30;99.90;;;;;;4899180;29;20041;-87
2022/03/17 00:55:07;;;;;;;28.65;16.02;;;9.30;99.90;;;;;;4898241;29;20057;-87
2022/03/17 00:57:36;;;;;;;30.58;15.90;;;9.30;99.90;;;;;;4898841;29;20057;-87
2022/03/17 01:00:03;;;;;;;28.23;16.10;;;9.30;99.90;;;;;;4898833;29;20040;-86
2022/03/17 01:02:29;;;;;;;26.90;16.60;;;9.30;99.90;;;;;;4896972;29;20067;-87
2022/03/17 01:04:54;;;;;;;31.25;17.55;;;9.30;99.90;;;;;;4898571;29;20473;-87
2022/03/17 01:07:20;;;;;;;26.77;15.48;;;9.30;99.90;;;;;;4898714;29;20052;-86
2022/03/17 01:09:46;;;;;;;28.83;16.60;;;9.30;99.90;;;;;;4880953;29;20053;-87
2022/03/17 01:12:11;;;;;;;29.95;17.15;;;9.30;99.90;;;;;;4881405;29;20044;-87
2022/03/17 01:14:37;;;;;;;28.92;16.40;;;9.30;99.90;;;;;;4898352;29;20051;-87
2022/03/17 01:17:03;;;;;;;29.38;17.15;;;9.30;99.90;;;;;;4881079;29;20053;-88
2022/03/17 01:19:28;;;;;;;29.80;16.85;;;9.30;99.90;;;;;;4881755;29;20504;-87
2022/03/17 01:21:54;;;;;;;27.35;16.63;;;9.30;99.90;;;;;;4881083;29;20056;-87
2022/03/17 01:24:20;;;;;;;28.15;16.58;;;9.30;99.90;;;;;;4897210;29;20478;-86
2022/03/17 01:26:46;;;;;;;30.23;17.42;;;9.30;99.90;;;;;;4881236;29;20063;-87
2022/03/17 01:29:13;;;;;;;27.67;15.70;;;9.30;99.90;;;;;;4881604;29;20044;-87
2022/03/17 01:32:11;;;;;;;28.20;16.50;;;9.30;99.90;;;;;;4880321;29;20080;-87
2022/03/17 01:34:36;;;;;;;29.63;16.25;;;9.10;99.90;;;;;;4866328;29;20485;-86
2022/03/17 01:37:02;;;;;;;27.35;16.20;;;9.40;99.90;;;;;;4897256;29;20064;-87
2022/03/17 01:39:27;;;;;;;29.90;16.88;;;9.40;99.90;;;;;;4897431;29;20123;-87
2022/03/17 01:41:57;;;;;;;26.92;16.30;;;9.40;99.90;;;;;;4898015;29;20056;-87
2022/03/17 01:44:23;;;;;;;28.02;15.48;;;9.40;99.90;;;;;;4896910;29;20045;-87
2022/03/17 01:49:41;;;;;;;28.27;16.45;;;9.40;99.90;;;;;;4880906;29;20049;-87
2022/03/17 01:52:07;;;;;;;29.52;16.13;;;9.50;99.90;;;;;;4896742;29;20048;-87
2022/03/17 01:54:34;;;;;;;28.63;16.13;;;9.50;99.90;;;;;;4881104;29;20072;-87
2022/03/17 01:57:00;;;;;;;26.33;16.20;;;9.50;99.90;;;;;;4880815;29;20059;-87
2022/03/17 01:59:27;;;;;;;27.77;16.52;;;9.60;99.90;;;;;;4896464;29;20041;-87
2022/03/17 02:01:54;;;;;;;28.52;16.50;;;9.60;99.90;;;;;;4880807;29;20511;-87
2022/03/17 02:04:20;;;;;;;28.23;16.60;;;9.60;99.90;;;;;;4880635;29;20056;-87
2022/03/17 02:06:46;;;;;;;27.40;16.35;;;9.70;99.90;;;;;;4879957;29;20080;-87
2022/03/17 02:09:11;;;;;;;26.10;15.23;;;9.70;99.90;;;;;;4880724;29;20041;-87
2022/03/17 02:14:23;;;;;;;27.95;16.30;;;9.80;99.90;;;;;;4897465;29;20446;-87
2022/03/17 02:16:49;;;;;;;28.53;16.37;;;9.80;99.90;;;;;;4898060;29;20072;-87
2022/03/17 02:19:16;;;;;;;26.73;15.97;;;9.80;99.90;;;;;;4896763;29;20071;-87
2022/03/17 02:21:44;;;;;;;27.37;15.90;;;9.70;99.90;;;;;;4880369;29;20131;-87
2022/03/17 02:26:55;;;;;;;27.30;16.25;;;9.60;99.90;;;;;;4879917;29;20064;-87
2022/03/17 02:29:20;;;;;;;28.10;16.10;;;9.60;99.90;;;;;;4880620;29;20104;-87
2022/03/17 02:31:46;;;;;;;28.10;15.63;;;9.60;99.90;;;;;;4898041;29;20412;-87
2022/03/17 02:34:11;;;;;;;28.75;16.38;;;9.60;99.90;;;;;;4896525;29;20051;-88
2022/03/17 02:36:46;;;;;;;30.60;16.77;;;9.50;99.90;;;;;;4897277;29;20041;-87
2022/03/17 02:39:13;;;;;;;28.15;16.02;;;9.50;99.90;;;;;;4896879;29;20095;-87
2022/03/17 02:41:39;;;;;;;27.15;16.63;;;9.50;99.90;;;;;;4896424;29;20417;-88
2022/03/17 02:44:05;;;;;;;27.03;16.70;;;9.40;99.90;;;;;;4880365;29;20084;-87
2022/03/17 02:46:31;;;;;;;26.73;16.10;;;9.50;99.90;;;;;;4897704;29;20079;-87
2022/03/17 02:48:57;;;;;;;28.77;16.73;;;9.50;99.90;;;;;;4880228;29;20465;-87
2022/03/17 02:51:46;;;;;;;29.23;16.05;;;9.50;99.90;;;;;;4879786;29;20112;-87
2022/03/17 02:54:12;;;;;;;26.85;16.27;;;9.40;99.90;;;;;;4879485;29;20127;-87
2022/03/17 02:56:37;;;;;;;29.08;17.20;;;9.50;99.90;;;;;;4897266;29;20119;-87
2022/03/17 02:59:03;;;;;;;29.13;16.83;;;9.50;99.90;;;;;;4897102;29;20041;-86
2022/03/17 03:01:28;;;;;;;29.20;17.05;;;9.50;99.90;;;;;;4879002;29;20051;-87
2022/03/17 03:03:54;;;;;;;28.13;16.20;;;9.50;99.90;;;;;;4896139;29;20534;-87
2022/03/17 03:06:19;;;;;;;31.52;17.58;;;9.50;99.90;;;;;;4879505;29;20497;-87
2022/03/17 03:08:54;;;;;;;31.55;16.30;;;9.50;99.90;;;;;;4879365;29;20053;-87
2022/03/17 03:11:20;;;;;;;29.00;16.70;;;9.10;99.90;;;;;;4880148;29;20052;-87
2022/03/17 03:13:46;;;;;;;30.05;17.75;;;10.20;99.90;;;;;;4900848;29;20048;-87
2022/03/17 03:16:13;;;;;;;28.25;16.85;;;9.40;99.90;;;;;;4899721;29;20091;-87
2022/03/17 03:18:40;;;;;;;29.05;16.70;;;9.40;99.90;;;;;;4900764;29;20087;-87
2022/03/17 03:21:07;;;;;;;29.35;16.70;;;9.40;99.90;;;;;;4900541;29;20053;-87
2022/03/17 03:23:33;;;;;;;28.25;17.08;;;9.40;99.90;;;;;;4882886;29;20055;-87
2022/03/17 03:25:59;;;;;;;29.48;17.25;;;9.30;99.90;;;;;;4900901;29;20452;-87
2022/03/17 03:28:24;;;;;;;29.10;17.52;;;9.30;99.90;;;;;;4883767;29;20044;-87
2022/03/17 03:30:50;;;;;;;28.83;16.77;;;9.30;99.90;;;;;;4900034;29;20481;-87
2022/03/17 03:33:16;;;;;;;30.95;17.08;;;9.30;99.90;;;;;;4900348;29;20045;-87
2022/03/17 03:38:26;;;;;;;28.67;16.95;;;9.30;99.90;;;;;;4881871;29;20052;-87
2022/03/17 03:40:51;;;;;;;31.58;18.05;;;9.30;99.90;;;;;;4883103;29;20048;-87
2022/03/17 03:43:17;;;;;;;29.35;17.65;;;9.20;99.90;;;;;;4882496;29;20100;-87
2022/03/17 03:45:43;;;;;;;30.55;18.05;;;9.20;99.90;;;;;;4900324;29;20048;-87
2022/03/17 03:48:08;;;;;;;28.70;16.70;;;9.30;99.90;;;;;;4899769;29;20053;-87
2022/03/17 03:50:34;;;;;;;29.75;17.70;;;9.30;99.90;;;;;;4898853;29;20048;-87
2022/03/17 03:53:00;;;;;;;29.50;17.85;;;9.30;99.90;;;;;;4882698;29;20045;-87
2022/03/17 03:55:25;;;;;;;31.80;18.85;;;9.30;99.90;;;;;;4882658;29;20147;-87
2022/03/17 03:57:51;;;;;;;32.15;19.63;;;9.40;99.90;;;;;;4899288;29;20128;-87
2022/03/17 04:02:52;;;;;;;31.23;18.92;;;9.40;99.90;;;;;;4900155;29;20204;-87
2022/03/17 04:05:19;;;;;;;30.65;19.75;;;9.40;99.90;;;;;;4898550;29;20567;-87
2022/03/17 04:07:45;;;;;;;33.17;19.80;;;9.50;99.90;;;;;;4899681;29;20036;-87
2022/03/17 04:10:11;;;;;;;30.40;18.42;;;9.40;99.90;;;;;;4899424;29;20511;-87
2022/03/17 04:12:37;;;;;;;32.22;18.23;;;9.40;99.90;;;;;;4881989;29;20072;-87
2022/03/17 04:15:03;;;;;;;27.83;17.88;;;9.50;99.90;;;;;;4882866;29;20048;-87
2022/03/17 04:17:29;;;;;;;30.10;18.27;;;9.50;99.90;;;;;;4899756;29;20131;-87
2022/03/17 04:19:54;;;;;;;29.60;17.15;;;9.50;99.90;;;;;;4899174;29;20056;-87
2022/03/17 04:22:20;;;;;;;28.27;17.23;;;9.50;99.90;;;;;;4898990;29;20103;-87
2022/03/17 04:24:46;;;;;;;29.00;17.60;;;10.30;99.90;;;;;;4899776;29;20044;-87
2022/03/17 04:27:11;;;;;;;31.08;17.25;;;9.50;99.90;;;;;;4881739;29;20049;-87
2022/03/17 04:29:37;;;;;;;29.92;17.95;;;9.50;99.90;;;;;;4882480;29;20053;-87
2022/03/17 04:32:03;;;;;;;27.70;17.13;;;9.60;99.90;;;;;;4899154;29;20049;-87
2022/03/17 04:34:28;;;;;;;29.40;18.25;;;9.60;99.90;;;;;;4898587;29;20068;-87
2022/03/17 04:36:54;;;;;;;29.95;18.45;;;9.60;99.90;;;;;;4881856;29;20537;-86
2022/03/17 04:39:19;;;;;;;32.88;17.52;;;9.60;99.90;;;;;;4898688;29;20063;-87
2022/03/17 04:41:45;;;;;;;29.73;17.60;;;9.60;99.90;;;;;;4881679;29;20096;-87
2022/03/17 04:44:12;;;;;;;28.08;16.90;;;9.60;99.90;;;;;;4899166;29;20087;-87
2022/03/17 04:46:38;;;;;;;30.50;18.17;;;9.60;99.90;;;;;;4881472;29;20055;-87
2022/03/17 04:49:04;;;;;;;29.23;18.25;;;9.60;99.90;;;;;;4881910;29;20131;-87
2022/03/17 04:51:31;;;;;;;32.58;18.63;;;9.60;99.90;;;;;;4882267;29;20076;-87
2022/03/17 04:53:57;;;;;;;29.60;18.27;;;9.60;99.90;;;;;;4898380;29;20048;-87
2022/03/17 04:56:23;;;;;;;31.27;19.42;;;9.60;99.90;;;;;;4898700;29;20132;-87
2022/03/17 04:58:49;;;;;;;32.28;19.73;;;10.70;99.90;;;;;;4881859;29;20131;-87
2022/03/17 05:01:15;;;;;;;31.45;19.85;;;9.60;99.90;;;;;;4905304;29;20048;-87
2022/03/17 05:03:41;;;;;;;30.67;19.48;;;9.60;99.90;;;;;;4916083;29;20048;-87
2022/03/17 05:06:11;;;;;;;33.97;20.65;;;9.60;99.90;;;;;;4916769;29;20091;-87
2022/03/17 05:08:37;;;;;;;35.78;21.58;;;9.60;99.90;;;;;;4915707;29;20119;-87
2022/03/17 05:11:03;;;;;;;37.22;22.70;;;9.70;99.90;;;;;;4917453;29;20475;-87
2022/03/17 05:13:29;;;;;;;42.07;24.10;;;9.70;99.90;;;;;;4916193;29;20479;-87
2022/03/17 05:15:55;;;;;;;41.70;24.27;;;9.70;99.90;;;;;;4917031;29;20083;-86
2022/03/17 05:18:21;;;;;;;47.63;28.80;;;9.60;99.90;;;;;;4915632;29;20032;-86
2022/03/17 05:20:47;;;;;;;50.37;30.57;;;9.60;99.90;;;;;;4917246;29;20083;-87
2022/03/17 05:23:15;;;;;;;55.47;31.67;;;9.50;99.90;;;;;;4915946;29;20393;-87
2022/03/17 05:25:42;;;;;;;54.42;30.55;;;9.50;99.90;;;;;;4915413;29;20123;-86
2022/03/17 05:28:08;;;;;;;55.80;31.20;;;9.50;99.90;;;;;;4916350;29;20543;-86
2022/03/17 05:30:38;;;;;;;51.17;30.45;;;9.50;99.90;;;;;;4916423;29;20056;-86
2022/03/17 05:33:05;;;;;;;52.70;30.42;;;9.40;99.90;;;;;;4915424;29;20176;-86
2022/03/17 05:35:31;;;;;;;54.85;31.00;;;9.40;99.90;;;;;;4916572;29;20079;-86
2022/03/17 05:37:57;;;;;;;58.88;30.98;;;9.30;99.90;;;;;;4914999;29;20040;-86
2022/03/17 05:40:23;;;;;;;57.55;29.80;;;9.30;99.90;;;;;;4916521;29;20060;-87
2022/03/17 05:42:53;;;;;;;56.70;30.98;;;9.30;99.90;;;;;;4914877;29;20047;-86
2022/03/17 05:45:20;;;;;;;56.63;28.85;;;9.30;99.90;;;;;;4899614;29;20103;-87
2022/03/17 05:47:48;;;;;;;39.72;22.02;;;9.30;99.90;;;;;;4917032;29;20048;-87
2022/03/17 05:50:16;;;;;;;29.73;15.75;;;9.20;99.90;;;;;;4915635;29;20059;-88
2022/03/17 05:52:43;;;;;;;26.23;13.73;;;9.10;99.90;;;;;;4916696;29;20051;-87
2022/03/17 05:55:13;;;;;;;14.90;7.07;;;9.10;99.90;;;;;;4916271;29;20050;-87
2022/03/17 05:57:41;;;;;;;12.68;6.93;;;8.70;99.90;;;;;;4916041;29;20052;-87
2022/03/17 06:00:09;;;;;;;13.20;7.03;;;8.50;99.90;;;;;;4916550;29;20044;-86
2022/03/17 06:02:35;;;;;;;13.63;6.95;;;8.20;99.90;;;;;;4915460;29;20047;-86
2022/03/17 06:05:02;;;;;;;13.95;7.38;;;8.10;99.90;;;;;;4914671;29;20135;-85
2022/03/17 06:07:45;;;;;;;13.43;7.20;;;7.90;99.90;;;;;;4916452;29;20096;-87
2022/03/17 06:10:13;;;;;;;14.00;7.75;;;7.80;99.90;;;;;;4915181;29;20073;-85
2022/03/17 06:12:39;;;;;;;13.00;7.07;;;7.80;99.90;;;;;;4914629;29;20056;-87
2022/03/17 06:15:07;;;;;;;15.20;8.13;;;7.70;99.90;;;;;;4916185;29;20123;-85
2022/03/17 06:17:53;;;;;;;14.45;7.88;;;7.70;99.90;;;;;;4916889;29;20058;-86
2022/03/17 06:20:21;;;;;;;17.63;9.38;;;7.60;99.90;;;;;;4914280;29;20139;-87
2022/03/17 06:22:48;;;;;;;18.65;9.02;;;7.60;99.90;;;;;;4916211;29;20040;-86
2022/03/17 06:25:17;;;;;;;19.02;10.20;;;7.60;99.90;;;;;;4914930;29;20507;-88
2022/03/17 06:27:43;;;;;;;17.33;9.95;;;7.60;99.90;;;;;;4916589;29;20400;-86
2022/03/17 06:30:12;;;;;;;17.05;9.70;;;7.60;99.90;;;;;;4914707;29;20072;-86
2022/03/17 06:32:39;;;;;;;16.85;9.57;;;7.60;99.90;;;;;;4914302;29;20488;-88
2022/03/17 06:35:07;;;;;;;20.27;10.63;;;7.60;99.90;;;;;;4916153;29;20055;-86
2022/03/17 06:37:32;;;;;;;25.33;10.82;;;7.60;99.90;;;;;;4914903;29;20044;-87
2022/03/17 06:39:58;;;;;;;21.15;10.43;;;7.60;99.90;;;;;;4914154;29;20070;-87
2022/03/17 06:42:24;;;;;;;18.95;10.75;;;7.50;99.90;;;;;;4916181;29;20062;-86
2022/03/17 06:44:49;;;;;;;20.13;10.32;;;7.60;99.90;;;;;;4916310;29;20485;-87
2022/03/17 06:47:15;;;;;;;21.02;10.70;;;7.50;99.90;;;;;;4917170;29;20052;-87
2022/03/17 06:49:40;;;;;;;19.35;9.95;;;7.50;99.90;;;;;;4918832;29;20488;-86
2022/03/17 06:52:07;;;;;;;21.63;10.55;;;7.50;99.90;;;;;;4919764;29;20103;-87
2022/03/17 06:54:32;;;;;;;24.57;12.23;;;7.50;99.90;;;;;;4919334;29;20055;-87
2022/03/17 06:56:59;;;;;;;20.30;10.63;;;7.50;99.90;;;;;;4920049;29;20392;-89
2022/03/17 06:59:25;;;;;;;23.40;10.80;;;7.50;99.90;;;;;;4918145;29;20052;-87
2022/03/17 07:01:50;;;;;;;19.27;10.27;;;7.40;99.90;;;;;;4917676;29;20055;-87
2022/03/17 07:04:16;;;;;;;21.60;10.52;;;7.50;99.90;;;;;;4918272;29;20032;-87
2022/03/17 07:06:41;;;;;;;21.13;10.47;;;7.40;99.90;;;;;;4918444;29;20071;-88
2022/03/17 07:09:22;;;;;;;21.67;9.37;;;7.50;99.90;;;;;;4921148;29;20056;-96
2022/03/17 07:11:50;;;;;;;22.77;10.60;;;7.40;99.90;;;;;;4931376;29;20043;-96
2022/03/17 07:14:19;;;;;;;19.33;9.63;;;7.40;99.90;;;;;;4923711;29;20135;-94
2022/03/17 07:16:54;;;;;;;20.63;9.60;;;7.10;99.90;;;;;;4979330;23;20063;-96
2022/03/17 07:19:59;;;;;;;21.87;9.70;;;10.00;99.90;;;;;;4922095;29;20052;-91
2022/03/17 07:22:28;;;;;;;21.57;12.00;;;7.40;99.90;;;;;;4864144;29;20057;-94
2022/03/17 07:25:11;;;;;;;18.37;7.83;;;7.60;99.90;;;;;;4864251;29;20050;-92
2022/03/17 07:27:40;;;;;;;17.80;8.00;;;7.10;99.90;;;;;;4865877;29;20073;-91
2022/03/17 07:30:08;;;;;;;17.80;7.93;;;8.00;99.90;;;;;;4863584;29;20045;-92
2022/03/17 07:32:33;;;;;;;20.20;8.57;;;7.30;99.90;;;;;;4865117;29;20144;-92
2022/03/17 07:34:59;;;;;;;16.37;6.60;;;7.10;99.90;;;;;;4848251;29;20049;-93
2022/03/17 07:37:42;;;;;;;18.42;8.57;;;7.10;99.90;;;;;;4845545;29;20049;-92
2022/03/17 07:40:16;;;;;;;13.60;5.40;;;8.50;99.90;;;;;;4863905;29;20485;-90
2022/03/17 07:42:57;;;;;;;12.87;4.77;;;7.10;99.90;;;;;;4864392;29;20049;-93
2022/03/17 07:45:23;;;;;;;12.13;4.27;;;7.30;99.90;;;;;;4866573;29;20048;-94
2022/03/17 07:47:57;;;;;;;15.03;5.83;;;8.00;99.90;;;;;;4864183;29;20053;-93
2022/03/17 07:50:27;;;;;;;13.50;3.90;;;7.20;99.90;;;;;;4862359;29;20101;-93
2022/03/17 07:52:52;;;;;;;16.98;6.38;;;8.50;99.90;;;;;;4848069;29;20056;-92
2022/03/17 07:55:23;;;;;;;13.53;4.63;;;7.30;99.90;;;;;;4848287;29;20054;-91
2022/03/17 07:57:50;;;;;;;17.17;6.13;;;;;;;;;;4860923;29;20056;-93
2022/03/17 08:00:16;;;;;;;14.00;3.97;;;7.40;99.90;;;;;;4846348;29;20049;-92
2022/03/17 08:02:42;;;;;;;13.20;3.60;;;7.40;99.90;;;;;;4845806;29;20046;-93
2022/03/17 08:05:09;;;;;;;13.32;4.07;;;8.40;99.90;;;;;;4846006;29;20065;-92
2022/03/17 08:07:35;;;;;;;16.83;5.32;;;7.30;99.90;;;;;;4843448;29;20054;-93
2022/03/17 08:10:02;;;;;;;12.40;3.63;;;8.30;99.90;;;;;;4846028;29;20443;-94
2022/03/17 08:12:31;;;;;;;13.25;3.35;;;7.60;99.90;;;;;;4861946;29;20052;-93
2022/03/17 08:17:52;;;;;;;11.77;3.33;;;7.20;99.90;;;;;;4846979;29;20100;-94
2022/03/17 08:20:18;;;;;;;12.45;3.30;;;7.80;99.90;;;;;;4843874;29;20057;-91
2022/03/17 08:22:44;;;;;;;16.63;3.85;;;6.90;99.90;;;;;;4862541;29;20059;-92
2022/03/17 08:25:16;;;;;;;15.20;6.00;;;6.90;99.90;;;;;;4861632;29;20049;-92
2022/03/17 08:27:44;;;;;;;15.50;3.35;;;6.40;99.90;;;;;;4845950;29;20057;-92
2022/03/17 08:30:11;;;;;;;12.55;3.28;;;7.20;99.90;;;;;;4862609;29;20037;-95
2022/03/17 08:32:44;;;;;;;15.10;3.13;;;7.10;99.90;;;;;;4845635;29;20053;-90
2022/03/17 08:35:14;;;;;;;11.33;2.37;;;7.60;99.90;;;;;;4845925;29;20127;-91
2022/03/17 08:37:46;;;;;;;10.05;1.98;;;7.00;99.90;;;;;;4862342;29;20168;-93
2022/03/17 08:40:13;;;;;;;12.18;2.15;;;7.00;99.90;;;;;;4862356;29;20188;-91
2022/03/17 08:42:54;;;;;;;9.15;2.17;;;7.50;99.90;;;;;;4863023;29;20109;-92
2022/03/17 08:50:49;;;;;;;13.77;3.05;;;7.40;99.90;;;;;;4863118;29;20053;-93
2022/03/17 08:53:15;;;;;;;17.88;5.07;;;8.40;99.90;;;;;;4864214;29;20053;-95
2022/03/17 08:55:53;;;;;;;14.27;3.90;;;7.90;99.90;;;;;;4864099;29;20046;-94
2022/03/17 08:58:18;;;;;;;11.97;2.70;;;7.30;99.90;;;;;;4849687;29;20055;-93
2022/03/17 09:00:44;;;;;;;17.20;3.93;;;7.20;99.90;;;;;;4848985;29;20050;-94
2022/03/17 09:03:10;;;;;;;14.30;3.67;;;7.10;99.90;;;;;;4865581;29;20077;-94
2022/03/17 09:05:39;;;;;;;15.67;3.60;;;7.50;99.90;;;;;;4874619;29;20494;-94
2022/03/17 09:08:14;;;;;;;12.13;2.73;;;7.30;99.90;;;;;;4860675;29;20052;-95
2022/03/17 09:10:40;;;;;;;17.67;6.97;;;7.30;99.90;;;;;;4866243;29;20054;-94
2022/03/17 09:13:07;;;;;;;14.70;2.93;;;7.20;99.90;;;;;;4866641;29;20569;-95
2022/03/17 09:15:38;;;;;;;14.40;2.93;;;8.50;99.90;;;;;;4865104;29;20060;-93
2022/03/17 09:18:09;;;;;;;12.13;2.20;;;7.10;99.90;;;;;;4846273;29;20050;-93
2022/03/17 09:20:38;;;;;;;14.60;2.17;;;7.20;99.90;;;;;;4864551;29;20696;-93
2022/03/17 09:23:05;;;;;;;11.47;2.80;;;7.30;99.90;;;;;;4864871;29;20053;-94
2022/03/17 09:25:34;;;;;;;13.57;2.57;;;8.10;99.90;;;;;;4864078;29;20177;-96
2022/03/17 09:28:04;;;;;;;12.27;2.43;;;7.40;99.90;;;;;;4863647;29;20049;-95
2022/03/17 09:30:30;;;;;;;12.43;2.33;;;7.30;99.90;;;;;;4851334;29;20051;-94
2022/03/17 09:33:03;;;;;;;15.00;2.97;;;7.00;99.90;;;;;;4862211;29;20451;-91
2022/03/17 09:35:29;;;;;;;13.23;2.40;;;7.60;99.90;;;;;;4845117;29;20132;-93
2022/03/17 09:37:55;;;;;;;10.90;2.20;;;7.10;99.90;;;;;;4861694;29;20085;-93
2022/03/17 09:40:21;;;;;;;13.03;2.20;;;7.20;99.90;;;;;;4861027;29;20084;-91
2022/03/17 09:42:47;;;;;;;19.30;2.57;;;7.50;99.90;;;;;;4860223;29;20097;-91
2022/03/17 09:45:15;;;;;;;12.77;2.00;;;7.40;99.90;;;;;;4860861;29;20128;-92
2022/03/17 09:47:43;;;;;;;14.67;2.50;;;7.60;99.90;;;;;;4844989;29;20045;-93
2022/03/17 09:50:11;;;;;;;12.80;3.13;;;7.60;99.90;;;;;;4845455;29;20046;-95
2022/03/17 09:52:41;;;;;;;15.30;2.63;;;7.70;99.90;;;;;;4845506;29;20045;-92
2022/03/17 09:55:44;;;;;;;13.18;2.72;;;8.50;99.90;;;;;;4847755;29;20049;-96
2022/03/17 09:58:12;;;;;;;14.55;2.40;;;7.80;99.90;;;;;;4846457;29;20057;-95
2022/03/17 10:00:53;;;;;;;12.47;2.90;;;7.60;99.90;;;;;;4862311;29;20049;-95
2022/03/17 10:03:29;;;;;;;12.13;2.53;;;7.60;99.90;;;;;;4846402;29;20072;-94
2022/03/17 10:06:05;;;;;;;12.23;2.40;;;8.60;99.90;;;;;;4859341;29;20056;-95
2022/03/17 10:08:33;;;;;;;13.07;2.80;;;8.00;99.90;;;;;;4848003;29;20065;-95
2022/03/17 10:10:59;;;;;;;11.23;2.47;;;8.30;99.90;;;;;;4863306;29;20041;-94
2022/03/17 10:13:43;;;;;;;12.43;2.20;;;7.50;99.90;;;;;;4861337;29;20453;-95
2022/03/17 10:16:20;;;;;;;11.53;3.07;;;7.80;99.90;;;;;;4844609;29;20432;-93
2022/03/17 10:18:59;;;;;;;13.50;2.60;;;8.60;99.90;;;;;;4860276;29;20391;-94
2022/03/17 10:21:50;;;;;;;14.47;3.00;;;8.70;99.90;;;;;;4845367;29;20069;-95
2022/03/17 10:24:22;;;;;;;8.63;1.83;;;8.20;99.90;;;;;;4845557;29;20054;-94
2022/03/17 10:26:51;;;;;;;11.13;2.77;;;8.00;99.90;;;;;;4861699;29;20098;-95
2022/03/17 10:29:25;;;;;;;11.80;2.80;;;7.90;99.90;;;;;;4845525;29;20140;-96
2022/03/17 10:32:14;;;;;;;14.95;2.72;;;8.70;99.90;;;;;;4845430;29;20490;-96
2022/03/17 10:34:51;;;;;;;12.70;2.40;;;8.50;99.90;;;;;;4862227;29;20046;-96
2022/03/17 10:37:17;;;;;;;13.20;2.53;;;8.30;99.90;;;;;;4861640;29;20046;-96
2022/03/17 10:39:47;;;;;;;14.35;2.80;;;8.50;99.90;;;;;;4861576;29;20083;-96
2022/03/17 10:42:25;;;;;;;12.48;2.15;;;8.40;99.90;;;;;;4861743;29;20056;-95
2022/03/17 10:44:52;;;;;;;12.73;2.45;;;8.30;99.90;;;;;;4846050;29;20049;-96
2022/03/17 10:47:40;;;;;;;12.60;2.85;;;8.50;99.90;;;;;;4861857;29;20132;-95
2022/03/17 10:50:22;;;;;;;10.13;2.38;;;8.60;99.90;;;;;;4863520;29;20053;-95
2022/03/17 10:52:56;;;;;;;10.70;3.95;;;8.80;99.90;;;;;;4867792;29;20053;-93
2022/03/17 10:55:27;;;;;;;17.58;5.07;;;8.90;99.90;;;;;;4845453;29;20057;-94
2022/03/17 10:58:13;;;;;;;27.20;12.53;;;9.10;99.90;;;;;;4845189;29;20050;-91
2022/03/17 11:00:49;;;;;;;42.03;18.55;;;9.40;99.90;;;;;;4825074;29;20129;-93
2022/03/17 11:03:24;;;;;;;21.93;9.13;;;9.40;99.90;;;;;;4848191;29;20060;-92
2022/03/17 11:05:51;;;;;;;12.75;3.70;;;9.80;99.90;;;;;;4826944;29;20470;-93
2022/03/17 11:08:21;;;;;;;14.32;3.17;;;9.60;99.90;;;;;;4841523;29;20050;-94
2022/03/17 11:11:08;;;;;;;11.10;2.97;;;11.00;99.90;;;;;;4856500;29;20046;-92
2022/03/17 11:13:59;;;;;;;15.52;2.97;;;10.10;99.90;;;;;;4916135;23;20050;-92
2022/03/17 11:16:42;;;;;;;9.52;1.85;;;10.60;99.90;;;;;;4862941;29;20087;-95
2022/03/17 11:19:12;;;;;;;14.48;2.75;;;10.90;99.90;;;;;;4863990;29;20041;-96
2022/03/17 11:21:38;;;;;;;8.98;2.15;;;11.80;99.90;;;;;;4863552;29;20056;-94
2022/03/17 11:24:04;;;;;;;9.80;1.73;;;11.10;99.90;;;;;;4880295;29;20052;-94
2022/03/17 11:26:44;;;;;;;9.65;2.10;;;10.90;99.90;;;;;;4882308;29;20131;-94
2022/03/17 11:29:18;;;;;;;11.73;1.90;;;12.00;99.90;;;;;;4866134;29;20112;-95
2022/03/17 11:31:56;;;;;;;13.73;2.30;;;11.30;99.90;;;;;;4864042;29;20083;-95
2022/03/17 11:34:50;;;;;;;9.93;2.50;;;10.90;99.90;;;;;;4914040;23;20137;-91
2022/03/17 11:37:34;;;;;;;8.05;1.85;;;10.70;99.90;;;;;;4924018;29;20054;-94
2022/03/17 11:40:19;;;;;;;10.05;2.08;;;9.20;99.90;;;;;;4908185;29;20048;-96
2022/03/17 11:43:15;;;;;;;8.90;2.00;;;9.80;99.90;;;;;;4906735;29;20083;-95
2022/03/17 11:46:24;;;;;;;11.05;2.42;;;10.50;99.90;;;;;;4878982;29;20084;-93
2022/03/17 11:48:54;;;;;;;14.07;2.33;;;10.60;99.90;;;;;;4922251;29;20048;-93
2022/03/17 11:53:52;;;;;;;10.85;2.17;;;10.50;99.90;;;;;;4941974;23;20428;-96
2022/03/17 11:56:37;;;;;;;10.60;1.95;;;11.50;99.90;;;;;;4925522;29;20048;-96
2022/03/17 11:59:21;;;;;;;8.70;1.92;;;11.00;99.90;;;;;;4922672;29;20080;-93
2022/03/17 12:02:13;;;;;;;13.18;2.22;;;10.40;99.90;;;;;;4929237;29;20401;-96
2022/03/17 12:05:21;;;;;;;11.27;2.20;;;10.70;99.90;;;;;;4910122;29;20044;-92
2022/03/17 12:07:47;;;;;;;10.25;2.05;;;10.90;99.90;;;;;;4899014;23;20520;-91
2022/03/17 12:11:05;;;;;;;10.18;1.85;;;11.00;99.90;;;;;;4893313;29;20059;-93
2022/03/17 12:14:08;;;;;;;13.00;2.45;;;10.80;99.90;;;;;;4898571;23;20053;-96
2022/03/17 12:16:46;;;;;;;10.30;2.15;;;10.80;99.90;;;;;;4884434;29;20060;-96
2022/03/17 12:19:33;;;;;;;15.50;2.95;;;10.50;99.90;;;;;;4922777;29;20044;-95
2022/03/17 12:22:08;;;;;;;9.98;2.47;;;10.80;99.90;;;;;;4902013;29;20396;-92
2022/03/17 12:24:53;;;;;;;15.13;3.08;;;11.00;99.90;;;;;;4909704;29;20049;-91
2022/03/17 12:27:44;;;;;;;8.20;1.77;;;10.90;99.90;;;;;;4908598;29;20087;-90
2022/03/17 12:30:15;;;;;;;8.93;2.00;;;11.00;99.90;;;;;;4889876;29;20054;-89
2022/03/17 12:32:58;;;;;;;12.18;2.30;;;11.20;99.90;;;;;;4907074;29;20045;-91
2022/03/17 12:35:42;;;;;;;9.80;2.72;;;11.60;99.90;;;;;;4890360;29;20374;-90
2022/03/17 12:38:09;;;;;;;10.93;2.80;;;12.60;99.90;;;;;;4887671;29;20048;-89
2022/03/17 12:40:54;;;;;;;14.48;3.53;;;11.90;99.90;;;;;;4907935;29;20044;-91
2022/03/17 12:43:21;;;;;;;9.90;2.55;;;11.90;99.90;;;;;;4908657;29;20052;-92
2022/03/17 12:46:04;;;;;;;9.95;2.10;;;12.30;99.90;;;;;;4906849;29;20124;-91
2022/03/17 12:48:31;;;;;;;10.90;2.27;;;11.80;99.90;;;;;;4889205;29;20071;-90
2022/03/17 12:51:05;;;;;;;13.23;2.40;;;12.10;99.90;;;;;;4901782;29;20463;-91
2022/03/17 12:53:31;;;;;;;9.95;2.60;;;12.20;99.90;;;;;;4896430;29;20191;-92
2022/03/17 12:55:57;;;;;;;10.63;2.40;;;12.10;99.90;;;;;;4908414;29;20124;-92
2022/03/17 12:58:24;;;;;;;13.10;2.83;;;12.20;99.90;;;;;;4889818;29;20497;-91
2022/03/17 13:01:05;;;;;;;9.45;2.17;;;12.10;99.90;;;;;;4907644;29;20499;-91
2022/03/17 13:03:31;;;;;;;8.13;2.00;;;12.60;99.90;;;;;;4886358;29;20487;-91
2022/03/17 13:09:44;;;;;;;8.90;2.13;;;13.20;99.90;;;;;;4908794;29;20466;-91
2022/03/17 13:15:24;;;;;;;11.20;2.47;;;11.80;99.90;;;;;;4891349;29;20044;-92
2022/03/17 13:18:15;;;;;;;12.57;2.20;;;11.80;99.90;;;;;;4890553;29;20569;-91
2022/03/17 13:20:41;;;;;;;10.10;2.30;;;12.20;99.90;;;;;;4907646;29;20092;-91
2022/03/17 13:23:12;;;;;;;9.93;2.58;;;11.90;99.90;;;;;;4889783;29;20437;-94
2022/03/17 13:25:39;;;;;;;10.75;2.22;;;11.40;99.90;;;;;;4895730;29;20056;-91
2022/03/17 13:28:14;;;;;;;9.50;2.25;;;12.20;99.90;;;;;;4882158;29;20051;-90
2022/03/17 13:30:52;;;;;;;9.48;2.50;;;12.90;99.90;;;;;;4908020;29;20063;-94